Death Valley, California
Current Conditions -  °F | °C
As of 4:52 AM on Friday 28 Nov 2014 (Local Time) from KDRA Reporting Station
Clear Clear  
Wind Chill: 35°   Ceiling: Unl
Heat Index: 35°   Visibility: 10mi
Dew Point: 13°   Wind: 0mph
Humidity: 40%   Direction: NA
Pressure: 30.1"   Gusts: NA
Location:  36.46°N, 116.87°W
Report Text: KDRA 281252Z AUTO 00000KT 10SM CLR 02/M11 A3010 RMK AO2 SLP180 T00171106 $
Loading
Personal Weather Stations






























Interactive Weather Map New forecast layout! Learn more

10-Day Weather Forecast

Advertisements
Track Severe Weather on mobile